createdAt,value
2018-05-16T00:01:48.236Z,5.57
2018-05-16T00:03:52.195Z,5.53
2018-05-16T00:05:55.342Z,5.03
2018-05-16T00:07:58.515Z,4.65
2018-05-16T00:10:02.423Z,6.07
2018-05-16T00:12:06.420Z,4.73
2018-05-16T00:14:09.562Z,6.27
2018-05-16T00:16:13.827Z,4.87
2018-05-16T00:18:17.027Z,5.57
2018-05-16T00:20:20.174Z,4.77
2018-05-16T00:22:23.343Z,4.47
2018-05-16T00:24:26.523Z,5.27
2018-05-16T00:26:30.436Z,6.40
2018-05-16T00:28:35.084Z,6.30
2018-05-16T00:30:38.255Z,5.12
2018-05-16T00:32:41.440Z,5.87
2018-05-16T00:34:44.595Z,4.97
2018-05-16T00:36:48.516Z,7.50
2018-05-16T00:38:52.471Z,4.60
2018-05-16T00:40:55.616Z,4.37
2018-05-16T00:42:58.790Z,4.20
2018-05-16T00:45:01.931Z,3.93
2018-05-16T00:47:05.070Z,3.87
2018-05-16T00:49:09.006Z,4.40
2018-05-16T00:51:30.128Z,4.07
2018-05-16T00:53:35.179Z,3.30
2018-05-16T00:55:39.097Z,5.27
2018-05-16T00:57:43.046Z,3.60
2018-05-16T00:59:46.191Z,4.83
2018-05-16T01:01:49.335Z,3.85
2018-05-16T01:03:52.514Z,4.53
2018-05-16T01:05:55.678Z,6.57
2018-05-16T01:07:58.851Z,6.15
2018-05-16T01:10:02.035Z,3.62
2018-05-16T01:12:05.188Z,4.30
2018-05-16T01:14:09.143Z,5.27
2018-05-16T01:16:12.297Z,5.47
2018-05-16T01:18:15.475Z,4.80
2018-05-16T01:20:18.624Z,4.57
2018-05-16T01:22:21.771Z,3.85
2018-05-16T01:24:24.946Z,5.00
2018-05-16T01:26:28.984Z,5.23
2018-05-16T01:28:32.933Z,3.87
2018-05-16T01:30:36.080Z,5.23
2018-05-16T01:32:39.235Z,3.53
2018-05-16T01:34:42.404Z,4.03
2018-05-16T01:36:46.324Z,4.43
2018-05-16T01:38:49.499Z,5.60
2018-05-16T01:40:52.656Z,4.97
2018-05-16T01:42:56.562Z,4.60
2018-05-16T01:44:59.747Z,4.07
2018-05-16T01:47:02.915Z,4.07
2018-05-16T01:49:22.830Z,5.62
2018-05-16T01:51:26.015Z,4.87
2018-05-16T01:53:29.950Z,3.80
2018-05-16T01:55:33.095Z,4.00
2018-05-16T01:57:36.239Z,5.73
2018-05-16T01:59:39.411Z,4.00
2018-05-16T02:01:42.559Z,5.85
2018-05-16T02:03:45.722Z,6.57
2018-05-16T02:05:48.875Z,3.55
2018-05-16T02:07:52.795Z,3.57
2018-05-16T02:09:56.827Z,3.80
2018-05-16T02:12:00.743Z,3.50
2018-05-16T02:14:03.922Z,4.25
2018-05-16T02:16:07.075Z,4.53
2018-05-16T02:18:10.991Z,4.40
2018-05-16T02:20:16.966Z,3.50
2018-05-16T02:22:20.900Z,4.55
2018-05-16T02:24:24.843Z,4.12
2018-05-16T02:26:27.986Z,4.77
2018-05-16T02:28:31.138Z,3.60
2018-05-16T02:30:36.194Z,4.00
2018-05-16T02:32:40.107Z,7.27
2018-05-16T02:34:44.052Z,5.28
2018-05-16T02:36:47.203Z,4.90
2018-05-16T02:38:50.343Z,4.53
2018-05-16T02:40:53.519Z,4.60
2018-05-16T02:42:56.835Z,4.40
2018-05-16T02:45:00.038Z,4.03
2018-05-16T02:47:03.191Z,4.90
2018-05-16T02:49:07.121Z,4.37
2018-05-16T02:51:11.068Z,4.87
2018-05-16T02:53:14.246Z,6.87
2018-05-16T02:55:17.419Z,5.27
2018-05-16T02:57:20.588Z,3.97
2018-05-16T02:59:23.735Z,3.80
2018-05-16T03:01:26.916Z,4.03
2018-05-16T03:03:30.071Z,4.00
2018-05-16T03:05:33.234Z,4.50
2018-05-16T03:07:38.247Z,3.80
2018-05-16T03:09:42.192Z,3.83
2018-05-16T03:11:45.337Z,3.17
2018-05-16T03:13:48.492Z,5.45
2018-05-16T03:15:52.435Z,3.87
2018-05-16T03:17:57.462Z,5.03
2018-05-16T03:20:01.405Z,4.13
2018-05-16T03:22:04.554Z,3.60
2018-05-16T03:24:07.702Z,4.10
2018-05-16T03:26:11.643Z,5.13
2018-05-16T03:28:15.559Z,4.03
2018-05-16T03:30:19.495Z,4.13
2018-05-16T03:32:23.403Z,3.92
2018-05-16T03:34:27.317Z,5.35
2018-05-16T03:36:32.002Z,3.97
2018-05-16T03:38:35.151Z,3.60
2018-05-16T03:40:38.323Z,3.87
2018-05-16T03:42:41.495Z,4.70
2018-05-16T03:44:44.639Z,4.25
2018-05-16T03:46:47.810Z,5.55
2018-05-16T03:48:51.720Z,5.00
2018-05-16T03:50:54.899Z,4.07
2018-05-16T03:52:59.427Z,4.37
2018-05-16T03:55:02.707Z,4.03
2018-05-16T04:00:01.909Z,3.77
2018-05-16T04:02:25.459Z,4.37
2018-05-16T04:04:29.500Z,6.28
2018-05-16T04:06:34.117Z,4.43
2018-05-16T04:08:39.557Z,4.00
2018-05-16T04:10:44.397Z,4.60
2018-05-16T04:12:49.083Z,5.73
2018-05-16T04:14:54.426Z,5.53
2018-05-16T04:16:59.167Z,4.15
2018-05-16T04:19:04.267Z,5.72
2018-05-16T04:21:09.671Z,4.30
2018-05-16T04:23:14.481Z,4.37
2018-05-16T04:25:19.177Z,4.18
2018-05-16T04:27:24.713Z,6.03
2018-05-16T04:29:29.534Z,6.07
2018-05-16T04:31:34.897Z,7.00
2018-05-16T04:33:39.601Z,5.13
2018-05-16T04:35:44.268Z,6.35
2018-05-16T04:37:48.667Z,4.40
2018-05-16T04:39:52.658Z,4.70
2018-05-16T04:41:55.835Z,4.75
2018-05-16T04:43:59.750Z,4.57
2018-05-16T04:46:03.711Z,4.93
2018-05-16T04:48:06.872Z,6.20
2018-05-16T04:50:10.031Z,5.57
2018-05-16T04:52:13.208Z,7.65
2018-05-16T04:54:18.245Z,7.03
2018-05-16T04:56:21.415Z,6.13
2018-05-16T04:58:24.571Z,5.85
2018-05-16T05:00:28.486Z,5.77
2018-05-16T05:02:31.662Z,6.12
2018-05-16T05:04:34.810Z,5.70
2018-05-16T05:06:38.492Z,6.53
2018-05-16T05:08:41.639Z,6.20
2018-05-16T05:10:44.825Z,5.80
2018-05-16T05:12:48.007Z,5.00
2018-05-16T05:14:51.892Z,5.75
2018-05-16T05:16:55.832Z,9.03
2018-05-16T05:18:59.016Z,5.50
2018-05-16T05:21:02.195Z,5.97
2018-05-16T05:23:05.343Z,5.62
2018-05-16T05:25:09.260Z,5.10
2018-05-16T05:27:13.208Z,4.80
2018-05-16T05:29:16.359Z,5.03
2018-05-16T05:31:19.539Z,4.77
2018-05-16T05:33:22.682Z,7.00
2018-05-16T05:35:26.595Z,4.30
2018-05-16T05:37:29.774Z,5.67
2018-05-16T05:39:32.926Z,4.67
2018-05-16T05:41:36.094Z,4.82
2018-05-16T05:43:39.247Z,4.60
2018-05-16T05:45:42.398Z,5.07
2018-05-16T05:47:45.570Z,4.80
2018-05-16T05:49:48.720Z,5.35
2018-05-16T05:51:51.906Z,5.82
2018-05-16T05:53:55.820Z,4.93
2018-05-16T05:56:00.045Z,5.20
2018-05-16T05:58:03.222Z,8.20
2018-05-16T06:00:06.445Z,5.77
2018-05-16T06:02:09.564Z,6.43
2018-05-16T06:04:12.719Z,6.20
2018-05-16T06:06:16.665Z,5.73
2018-05-16T06:08:19.849Z,6.63
2018-05-16T06:10:23.018Z,6.17
2018-05-16T06:12:26.193Z,5.80
2018-05-16T06:14:29.364Z,6.45
2018-05-16T06:16:32.517Z,8.60
2018-05-16T06:18:35.699Z,6.60
2018-05-16T06:20:39.728Z,6.25
2018-05-16T06:22:42.917Z,7.17
2018-05-16T06:24:46.107Z,7.87
2018-05-16T06:26:50.943Z,8.55
2018-05-16T06:28:54.225Z,7.27
2018-05-16T06:30:57.377Z,8.70
2018-05-16T06:33:01.327Z,7.40
2018-05-16T06:35:04.470Z,6.13
2018-05-16T06:37:07.668Z,7.67
2018-05-16T06:39:10.839Z,6.50
2018-05-16T06:41:14.260Z,6.57
2018-05-16T06:43:17.438Z,6.23
2018-05-16T06:45:21.528Z,6.68
2018-05-16T06:47:24.698Z,6.43
2018-05-16T06:49:27.846Z,7.77
2018-05-16T06:51:30.990Z,8.07
2018-05-16T06:53:34.162Z,7.12
2018-05-16T06:55:37.316Z,7.60
2018-05-16T06:57:42.383Z,7.63
2018-05-16T06:59:45.783Z,8.93
2018-05-16T07:01:48.960Z,8.43
2018-05-16T07:03:52.130Z,9.53
2018-05-16T07:05:55.279Z,6.65
2018-05-16T07:07:58.463Z,6.15
2018-05-16T07:10:02.520Z,7.50
2018-05-16T07:12:05.666Z,7.40
2018-05-16T07:14:08.834Z,6.40
2018-05-16T07:16:13.244Z,6.18
2018-05-16T07:18:16.427Z,8.20
2018-05-16T07:20:20.021Z,6.47
2018-05-16T07:22:24.153Z,6.90
2018-05-16T07:24:28.404Z,6.43
2018-05-16T07:26:31.579Z,6.10
2018-05-16T07:28:34.758Z,7.28
2018-05-16T07:30:38.739Z,6.20
2018-05-16T07:32:42.054Z,6.57
2018-05-16T07:34:45.241Z,7.87
2018-05-16T07:36:49.158Z,6.85
2018-05-16T07:38:52.335Z,8.97
2018-05-16T07:40:55.483Z,9.83
2018-05-16T07:42:59.395Z,7.10
2018-05-16T07:45:03.437Z,6.50
2018-05-16T07:47:06.675Z,6.13
2018-05-16T07:49:11.494Z,6.57
2018-05-16T07:51:15.050Z,7.50
2018-05-16T07:53:18.598Z,9.15
2018-05-16T07:55:21.803Z,7.43
2018-05-16T07:57:25.779Z,6.53
2018-05-16T07:59:28.951Z,5.73
2018-05-16T08:01:33.628Z,6.23
2018-05-16T08:03:36.810Z,7.53
2018-05-16T08:05:39.961Z,6.70
2018-05-16T08:07:43.186Z,5.80
2018-05-16T08:09:46.296Z,7.47
2018-05-16T08:11:49.442Z,6.40
2018-05-16T08:13:53.383Z,5.80
2018-05-16T08:15:57.327Z,7.57
2018-05-16T08:18:00.478Z,12.50
2018-05-16T08:20:03.678Z,6.32
2018-05-16T08:22:06.826Z,5.90
2018-05-16T08:24:10.772Z,6.60
2018-05-16T08:26:14.007Z,7.32
2018-05-16T08:28:17.157Z,5.87
2018-05-16T08:30:20.347Z,6.10
2018-05-16T08:32:23.495Z,8.47
2018-05-16T08:34:27.480Z,5.83
2018-05-16T08:36:30.603Z,7.53
2018-05-16T08:38:33.759Z,8.23
2018-05-16T08:40:36.947Z,5.47
2018-05-16T08:42:40.866Z,5.30
2018-05-16T08:44:44.805Z,6.15
2018-05-16T08:46:47.951Z,5.33
2018-05-16T08:48:51.108Z,6.85
2018-05-16T08:50:55.053Z,7.80
2018-05-16T08:52:58.202Z,6.73
2018-05-16T08:55:01.386Z,5.28
2018-05-16T08:57:06.250Z,5.37
2018-05-16T08:59:09.429Z,5.00
2018-05-16T09:01:12.598Z,5.90
2018-05-16T09:03:16.987Z,6.60
2018-05-16T09:05:20.968Z,5.45
2018-05-16T09:07:24.874Z,5.97
2018-05-16T09:09:28.063Z,7.20
2018-05-16T09:11:31.247Z,7.00
2018-05-16T09:13:34.404Z,6.15
2018-05-16T09:15:37.573Z,5.83
2018-05-16T09:17:40.740Z,6.12
2018-05-16T09:19:44.682Z,7.63
2018-05-16T09:21:47.826Z,5.80
2018-05-16T09:23:51.012Z,6.47
2018-05-16T09:25:54.178Z,7.23
2018-05-16T09:28:00.321Z,5.93
2018-05-16T09:30:03.623Z,5.97
2018-05-16T09:32:06.799Z,8.70
2018-05-16T09:34:09.968Z,5.63
2018-05-16T09:36:13.133Z,7.55
2018-05-16T09:38:16.274Z,8.95
2018-05-16T09:40:19.459Z,6.12
2018-05-16T09:42:22.639Z,8.60
2018-05-16T09:44:25.783Z,5.78
2018-05-16T09:46:29.255Z,6.22
2018-05-16T09:48:33.168Z,4.53
2018-05-16T09:50:37.116Z,5.10
2018-05-16T09:52:40.270Z,6.10
2018-05-16T09:54:43.443Z,6.25
2018-05-16T09:56:46.615Z,4.93
2018-05-16T09:58:50.544Z,8.43
2018-05-16T10:00:54.494Z,7.00
2018-05-16T10:02:57.644Z,4.73
2018-05-16T10:05:00.819Z,5.03
2018-05-16T10:07:03.963Z,5.20
2018-05-16T10:09:07.901Z,5.15
2018-05-16T10:11:11.079Z,8.07
2018-05-16T10:13:14.235Z,6.53
2018-05-16T10:15:18.175Z,8.23
2018-05-16T10:17:22.083Z,5.03
2018-05-16T10:19:26.007Z,5.85
2018-05-16T10:21:30.343Z,7.85
2018-05-16T10:23:34.014Z,5.30
2018-05-16T10:25:37.259Z,5.10
2018-05-16T10:27:40.410Z,7.37
2018-05-16T10:29:43.557Z,4.53
2018-05-16T10:31:46.738Z,4.70
2018-05-16T10:33:49.888Z,4.90
2018-05-16T10:35:53.063Z,4.20
2018-05-16T10:37:56.228Z,5.03
2018-05-16T10:40:00.143Z,4.80
2018-05-16T10:42:03.313Z,4.57
2018-05-16T10:44:06.460Z,5.10
2018-05-16T10:46:10.403Z,5.43
2018-05-16T10:48:14.311Z,6.50
2018-05-16T10:50:18.248Z,4.80
2018-05-16T10:52:22.222Z,4.70
2018-05-16T10:54:25.379Z,5.47
2018-05-16T10:56:29.443Z,5.57
2018-05-16T10:58:32.595Z,4.47
2018-05-16T11:00:36.058Z,5.68
2018-05-16T11:02:39.246Z,4.03
2018-05-16T11:04:43.178Z,5.28
2018-05-16T11:06:47.118Z,5.53
2018-05-16T11:08:50.267Z,5.78
2018-05-16T11:10:53.422Z,5.73
2018-05-16T11:12:56.595Z,4.53
2018-05-16T11:14:59.828Z,6.97
2018-05-16T11:17:03.767Z,5.87
2018-05-16T11:19:06.911Z,4.83
2018-05-16T11:21:10.088Z,4.00
2018-05-16T11:23:14.046Z,4.30
2018-05-16T11:25:17.202Z,3.70
2018-05-16T11:27:21.135Z,5.23
2018-05-16T11:29:25.044Z,3.77
2018-05-16T11:31:28.992Z,3.92
2018-05-16T11:33:32.140Z,4.05
2018-05-16T11:35:35.320Z,8.10
2018-05-16T11:37:38.494Z,5.40
2018-05-16T11:39:42.421Z,5.57
2018-05-16T11:41:46.371Z,3.17
2018-05-16T11:43:49.533Z,3.03
2018-05-16T11:45:52.692Z,3.45
2018-05-16T11:47:55.867Z,4.17
2018-05-16T11:49:59.013Z,4.50
2018-05-16T11:52:02.190Z,3.93
2018-05-16T11:54:06.111Z,5.50
2018-05-16T11:56:10.023Z,3.43
2018-05-16T11:58:13.207Z,3.97
2018-05-16T12:00:16.383Z,5.67
2018-05-16T12:02:19.559Z,4.47
2018-05-16T12:04:23.470Z,5.07
2018-05-16T12:06:26.615Z,4.07
2018-05-16T12:08:29.787Z,3.90
2018-05-16T12:10:32.956Z,3.00
2018-05-16T12:12:36.134Z,3.85
2018-05-16T12:14:41.275Z,3.58
2018-05-16T12:16:45.094Z,5.50
2018-05-16T12:18:49.032Z,3.87
2018-05-16T12:20:52.954Z,4.05
2018-05-16T12:22:56.895Z,4.67
2018-05-16T12:25:00.084Z,3.43
2018-05-16T12:27:04.034Z,5.33
2018-05-16T12:29:07.250Z,4.97
2018-05-16T12:31:11.143Z,4.87
2018-05-16T12:33:15.091Z,3.93
2018-05-16T12:35:18.236Z,5.75
2018-05-16T12:37:21.610Z,4.37
2018-05-16T12:39:24.773Z,4.10
2018-05-16T12:41:27.927Z,4.40
2018-05-16T12:43:32.038Z,5.80
2018-05-16T12:45:35.967Z,4.03
2018-05-16T12:47:39.937Z,4.70
2018-05-16T12:49:43.079Z,4.30
2018-05-16T12:51:46.224Z,4.27
2018-05-16T12:53:49.413Z,4.37
2018-05-16T12:55:53.322Z,4.60
2018-05-16T12:57:56.551Z,3.40
2018-05-16T13:00:00.466Z,4.00
2018-05-16T13:02:04.382Z,3.73
2018-05-16T13:04:07.563Z,4.30
2018-05-16T13:06:10.717Z,3.37
2018-05-16T13:08:14.659Z,4.33
2018-05-16T13:10:17.812Z,3.70
2018-05-16T13:12:21.909Z,4.33
2018-05-16T13:14:25.193Z,3.37
2018-05-16T13:16:28.411Z,4.73
2018-05-16T13:18:32.342Z,3.17
2018-05-16T13:20:35.503Z,3.45
2018-05-16T13:22:38.657Z,3.20
2018-05-16T13:24:42.799Z,3.00
2018-05-16T13:26:45.960Z,5.77
2018-05-16T13:28:49.915Z,3.60
2018-05-16T13:30:53.832Z,2.67
2018-05-16T13:32:57.748Z,2.65
2018-05-16T13:35:00.918Z,3.37
2018-05-16T13:37:04.531Z,3.13
2018-05-16T13:39:07.731Z,3.27
2018-05-16T13:41:10.887Z,3.73
2018-05-16T13:43:14.803Z,4.22
2018-05-16T13:45:17.982Z,3.03
2018-05-16T13:47:21.154Z,2.83
2018-05-16T13:49:24.607Z,3.10
2018-05-16T13:51:27.792Z,2.60
2018-05-16T13:53:31.003Z,5.53
2018-05-16T13:55:34.160Z,5.07
2018-05-16T13:57:37.330Z,4.90
2018-05-16T13:59:40.515Z,3.80
2018-05-16T14:01:44.788Z,2.78
2018-05-16T14:03:47.954Z,2.47
2018-05-16T14:05:51.112Z,3.27
2018-05-16T14:07:54.257Z,6.20
2018-05-16T14:09:58.224Z,4.97
2018-05-16T14:12:01.373Z,2.80
2018-05-16T14:14:04.859Z,3.17
2018-05-16T14:16:08.029Z,3.97
2018-05-16T14:18:11.206Z,4.25
2018-05-16T14:20:14.388Z,3.83
2018-05-16T14:22:17.538Z,3.60
2018-05-16T14:24:21.489Z,3.97
2018-05-16T14:26:24.634Z,3.80
2018-05-16T14:28:27.811Z,3.27
2018-05-16T14:30:30.978Z,5.00
2018-05-16T14:32:34.902Z,3.33
2018-05-16T14:34:38.104Z,4.90
2018-05-16T14:36:41.256Z,2.97
2018-05-16T14:38:46.351Z,3.87
2018-05-16T14:40:49.495Z,3.10
2018-05-16T14:42:53.494Z,3.78
2018-05-16T14:44:57.365Z,3.45
2018-05-16T14:47:00.510Z,3.07
2018-05-16T14:49:03.838Z,4.18
2018-05-16T14:51:06.996Z,3.13
2018-05-16T14:53:10.171Z,3.43
2018-05-16T14:55:14.115Z,4.10
2018-05-16T14:57:17.260Z,3.22
2018-05-16T14:59:20.444Z,3.17
2018-05-16T15:01:23.627Z,3.37
2018-05-16T15:03:27.555Z,2.83
2018-05-16T15:05:31.492Z,3.92
2018-05-16T15:07:34.667Z,3.93
2018-05-16T15:09:37.841Z,3.80
2018-05-16T15:11:40.994Z,2.87
2018-05-16T15:13:44.904Z,3.07
2018-05-16T15:15:48.078Z,3.90
2018-05-16T15:17:51.234Z,3.50
2018-05-16T15:19:55.179Z,3.40
2018-05-16T15:22:00.798Z,4.13
2018-05-16T15:24:03.975Z,3.37
2018-05-16T15:26:07.142Z,5.10
2018-05-16T15:28:10.301Z,3.20
2018-05-16T15:30:13.477Z,2.95
2018-05-16T15:32:17.385Z,3.30
2018-05-16T15:34:21.300Z,3.12
2018-05-16T15:36:24.476Z,2.73
2018-05-16T15:38:27.706Z,4.63
2018-05-16T15:40:31.166Z,2.85
2018-05-16T15:42:34.702Z,6.60
2018-05-16T15:44:37.855Z,4.85
2018-05-16T15:46:41.025Z,3.77
2018-05-16T15:48:44.169Z,3.80
2018-05-16T15:50:47.447Z,6.47
2018-05-16T15:52:50.634Z,8.27
2018-05-16T15:54:53.830Z,7.95
2018-05-16T15:56:57.776Z,10.47
2018-05-16T15:59:00.924Z,9.10
2018-05-16T16:01:04.878Z,12.70
2018-05-16T16:03:08.816Z,8.07
2018-05-16T16:05:13.173Z,12.77
2018-05-16T16:07:18.271Z,9.02
2018-05-16T16:09:21.527Z,8.57
2018-05-16T16:11:24.698Z,9.80
2018-05-16T16:13:27.950Z,9.53
2018-05-16T16:15:31.130Z,8.63
2018-05-16T16:17:35.111Z,9.37
2018-05-16T16:19:38.290Z,12.13
2018-05-16T16:21:41.465Z,10.88
2018-05-16T16:23:45.383Z,8.30
2018-05-16T16:25:49.317Z,12.00
2018-05-16T16:27:53.255Z,9.35
2018-05-16T16:29:57.175Z,12.43
2018-05-16T16:32:01.127Z,9.98
2018-05-16T16:34:04.303Z,8.80
2018-05-16T16:36:07.874Z,9.57
2018-05-16T16:38:11.028Z,9.80
2018-05-16T16:40:14.944Z,9.05
2018-05-16T16:42:18.128Z,8.88
2018-05-16T16:44:21.275Z,10.27
2018-05-16T16:46:25.254Z,11.82
2018-05-16T16:48:28.650Z,10.00
2018-05-16T16:50:31.796Z,12.00
2018-05-16T16:52:34.971Z,8.82
2018-05-16T16:54:38.219Z,9.10
2018-05-16T16:56:41.351Z,8.30
2018-05-16T16:58:45.299Z,8.33
2018-05-16T17:00:48.471Z,9.55
2018-05-16T17:02:52.433Z,9.65
2018-05-16T17:04:55.620Z,9.27
2018-05-16T17:06:59.569Z,9.27
2018-05-16T17:09:02.716Z,9.37
2018-05-16T17:11:05.890Z,10.13
2018-05-16T17:13:11.287Z,13.63
2018-05-16T17:15:15.347Z,10.43
2018-05-16T17:17:19.299Z,13.23
2018-05-16T17:19:22.450Z,9.82
2018-05-16T17:21:25.690Z,10.03
2018-05-16T17:23:30.731Z,9.43
2018-05-16T17:30:53.936Z,9.97
2018-05-16T17:32:57.135Z,10.30
2018-05-16T17:35:00.341Z,9.70
2018-05-16T17:37:03.554Z,10.97
2018-05-16T17:39:06.728Z,9.80
2018-05-16T17:41:09.913Z,11.00
2018-05-16T17:43:40.490Z,11.75
2018-05-16T17:45:43.684Z,11.07
2018-05-16T17:47:46.872Z,13.27
2018-05-16T17:49:50.078Z,10.70
2018-05-16T17:51:55.434Z,10.33
2018-05-16T17:53:58.706Z,10.50
2018-05-16T17:56:03.215Z,11.43
2018-05-16T17:58:06.407Z,12.00
2018-05-16T18:00:10.760Z,10.97
2018-05-16T18:02:13.992Z,9.57
2018-05-16T18:04:17.200Z,7.90
2018-05-16T18:06:20.456Z,9.98
2018-05-16T18:08:23.751Z,8.60
2018-05-16T18:10:26.947Z,10.57
2018-05-16T18:12:30.163Z,9.70
2018-05-16T18:17:29.229Z,9.73
2018-05-16T18:19:32.422Z,10.10
2018-05-16T18:21:35.607Z,9.27
2018-05-16T18:23:38.817Z,10.47
2018-05-16T18:25:42.727Z,8.75
2018-05-16T18:27:46.830Z,9.53
2018-05-16T18:29:50.050Z,10.67
2018-05-16T18:31:53.359Z,9.33
2018-05-16T18:33:56.667Z,8.68
2018-05-16T18:35:59.888Z,8.82
2018-05-16T18:38:03.886Z,10.47
2018-05-16T18:40:07.859Z,9.48
2018-05-16T18:42:11.540Z,10.77
2018-05-16T18:44:14.746Z,9.70
2018-05-16T18:46:17.948Z,9.05
2018-05-16T18:48:21.164Z,9.43
2018-05-16T18:50:24.510Z,8.97
2018-05-16T18:52:27.763Z,10.40
2018-05-16T18:54:30.999Z,7.28
2018-05-16T18:56:34.190Z,6.28
2018-05-16T18:58:37.542Z,6.82
2018-05-16T19:00:41.492Z,6.63
2018-05-16T19:02:44.705Z,7.00
2018-05-16T19:04:47.896Z,5.50
2018-05-16T19:06:52.744Z,5.55
2018-05-16T19:08:56.173Z,6.50
2018-05-16T19:11:00.238Z,5.30
2018-05-16T19:13:03.469Z,5.60
2018-05-16T19:15:07.833Z,5.37
2018-05-16T19:17:11.054Z,5.97
2018-05-16T19:19:14.308Z,5.10
2018-05-16T19:21:17.491Z,6.10
2018-05-16T19:23:22.054Z,5.77
2018-05-16T19:25:25.319Z,5.00
2018-05-16T19:27:28.550Z,5.87
2018-05-16T19:29:31.783Z,5.43
2018-05-16T19:31:35.139Z,4.93
2018-05-16T19:33:38.379Z,5.72
2018-05-16T19:35:41.556Z,6.28
2018-05-16T19:37:45.541Z,5.47
2018-05-16T19:39:48.721Z,5.43
2018-05-16T19:41:52.008Z,5.20
2018-05-16T19:43:55.219Z,4.90
2018-05-16T19:45:58.568Z,4.70
2018-05-16T19:48:01.777Z,4.62
2018-05-16T19:50:04.971Z,4.82
2018-05-16T19:52:08.161Z,6.33
2018-05-16T19:54:12.485Z,5.45
2018-05-16T19:56:16.210Z,6.05
2018-05-16T19:58:20.570Z,7.82
2018-05-16T20:00:24.788Z,6.03
2018-05-16T20:02:28.986Z,6.07
2018-05-16T20:04:33.450Z,8.13
2018-05-16T20:06:39.412Z,6.90
2018-05-16T20:08:42.726Z,5.87
2018-05-16T20:10:47.810Z,6.07
2018-05-16T20:12:51.081Z,13.13
2018-05-16T20:14:55.435Z,7.65
2018-05-16T20:16:59.414Z,45.23
2018-05-16T20:19:03.643Z,19.20
2018-05-16T20:21:08.062Z,8.83
2018-05-16T20:23:11.262Z,32.53
2018-05-16T20:25:14.493Z,23.10
2018-05-16T20:27:17.684Z,14.90
2018-05-16T20:29:21.231Z,18.60
2018-05-16T20:31:25.419Z,21.17
2018-05-16T20:33:29.067Z,15.47
2018-05-16T20:35:32.255Z,15.63
2018-05-16T20:37:35.514Z,20.00
2018-05-16T20:39:39.805Z,18.62
2018-05-16T20:41:43.015Z,14.55
2018-05-16T20:43:48.127Z,18.07
2018-05-16T20:45:50.963Z,15.77
2018-05-16T20:47:54.172Z,14.87
2018-05-16T20:49:57.377Z,12.43
2018-05-16T20:52:00.692Z,10.00
2018-05-16T20:54:04.684Z,13.90
2018-05-16T20:56:08.669Z,13.13
2018-05-16T20:58:12.229Z,11.87
2018-05-16T21:00:15.465Z,11.27
2018-05-16T21:02:18.658Z,12.57
2018-05-16T21:04:22.163Z,11.68
2018-05-16T21:06:25.446Z,13.33
2018-05-16T21:08:28.631Z,12.48
2018-05-16T21:10:31.851Z,12.23
2018-05-16T21:12:35.713Z,14.87
2018-05-16T21:14:38.952Z,12.63
2018-05-16T21:16:42.151Z,11.15
2018-05-16T21:18:45.449Z,13.73
2018-05-16T21:20:48.674Z,11.27
2018-05-16T21:22:51.856Z,12.18
2018-05-16T21:24:55.831Z,16.73
2018-05-16T21:26:59.037Z,12.63
2018-05-16T21:29:02.224Z,26.63
2018-05-16T21:31:05.430Z,13.10
2018-05-16T21:33:08.654Z,12.43
2018-05-16T21:35:11.845Z,18.37
2018-05-16T21:37:15.051Z,15.02
2018-05-16T21:39:18.664Z,15.30
2018-05-16T21:41:21.854Z,14.70
2018-05-16T21:43:25.809Z,14.35
2018-05-16T21:45:29.032Z,14.50
2018-05-16T21:47:32.227Z,12.30
2018-05-16T21:49:35.456Z,19.65
2018-05-16T21:51:38.657Z,12.20
2018-05-16T21:53:41.840Z,11.73
2018-05-16T21:55:45.825Z,12.70
2018-05-16T21:57:49.017Z,12.63
2018-05-16T21:59:52.253Z,14.57
2018-05-16T22:01:55.436Z,12.23
2018-05-16T22:03:58.617Z,20.70
2018-05-16T22:06:01.887Z,13.68
2018-05-16T22:08:05.072Z,13.65
2018-05-16T22:10:08.394Z,14.97
2018-05-16T22:12:12.271Z,13.57
2018-05-16T22:14:15.451Z,18.60
2018-05-16T22:16:19.479Z,18.25
2018-05-16T22:18:23.450Z,15.45
2018-05-16T22:20:26.660Z,13.97
2018-05-16T22:22:29.838Z,14.00
2018-05-16T22:24:33.798Z,15.73
2018-05-16T22:26:36.993Z,18.73
2018-05-16T22:28:41.120Z,14.70
2018-05-16T22:30:44.333Z,12.33
2018-05-16T22:32:48.293Z,17.73
2018-05-16T22:34:51.502Z,13.00
2018-05-16T22:36:54.714Z,12.20
2018-05-16T22:38:57.894Z,17.58
2018-05-16T22:41:01.098Z,15.45
2018-05-16T22:43:04.279Z,13.27
2018-05-16T22:45:09.219Z,12.17
2018-05-16T22:47:12.401Z,14.50
2018-05-16T22:49:15.594Z,18.65
2018-05-16T22:51:18.813Z,15.52
2018-05-16T22:53:22.859Z,14.48
2018-05-16T22:55:28.700Z,12.35
2018-05-16T22:57:31.890Z,11.87
2018-05-16T22:59:35.088Z,13.18
2018-05-16T23:01:38.294Z,17.43
2018-05-16T23:03:42.586Z,18.85
2018-05-16T23:05:45.882Z,14.93
2018-05-16T23:07:49.061Z,14.20
2018-05-16T23:09:52.256Z,14.17
2018-05-16T23:11:55.500Z,14.45
2018-05-16T23:13:58.691Z,13.67
2018-05-16T23:16:02.805Z,11.03
2018-05-16T23:18:06.891Z,11.48
2018-05-16T23:20:10.156Z,12.07
2018-05-16T23:22:13.369Z,9.50
2018-05-16T23:24:16.547Z,16.17
2018-05-16T23:26:20.518Z,14.87
2018-05-16T23:28:23.705Z,13.63
2018-05-16T23:30:29.168Z,12.40
2018-05-16T23:32:32.605Z,13.43
2018-05-16T23:34:36.933Z,15.65
2018-05-16T23:36:40.137Z,14.50
2018-05-16T23:38:43.313Z,15.60
2018-05-16T23:40:46.521Z,14.67
2018-05-16T23:42:49.701Z,17.20
2018-05-16T23:44:52.886Z,14.53
2018-05-16T23:46:56.110Z,12.03
2018-05-16T23:48:59.291Z,14.23
2018-05-16T23:51:02.512Z,14.55
2018-05-16T23:53:05.698Z,12.55
2018-05-16T23:55:08.885Z,10.07
2018-05-16T23:57:12.102Z,12.60
2018-05-16T23:59:15.302Z,15.03
